createdAt,value
2019-05-07T00:01:36.118Z,23.57
2019-05-07T00:04:02.425Z,24.72
2019-05-07T00:06:28.652Z,25.02
2019-05-07T00:08:54.534Z,24.45
2019-05-07T00:11:22.320Z,25.12
2019-05-07T00:13:48.991Z,28.15
2019-05-07T00:16:14.854Z,29.35
2019-05-07T00:18:42.727Z,30.48
2019-05-07T00:21:08.895Z,31.55
2019-05-07T00:23:34.758Z,29.80
2019-05-07T00:26:02.344Z,31.05
2019-05-07T00:28:28.366Z,30.88
2019-05-07T00:30:54.621Z,31.60
2019-05-07T00:33:22.681Z,31.93
2019-05-07T00:36:02.715Z,28.98
2019-05-07T00:38:31.945Z,26.60
2019-05-07T00:41:12.356Z,28.85
2019-05-07T00:43:39.836Z,28.20
2019-05-07T00:46:07.549Z,25.40
2019-05-07T00:48:33.374Z,33.73
2019-05-07T00:51:17.884Z,39.50
2019-05-07T00:53:43.745Z,38.50
2019-05-07T00:56:12.334Z,42.08
2019-05-07T00:58:37.794Z,36.90
2019-05-07T01:01:03.918Z,35.85
2019-05-07T01:03:30.077Z,33.10
2019-05-07T01:05:56.302Z,34.78
2019-05-07T01:08:22.772Z,32.60
2019-05-07T01:10:49.190Z,30.55
2019-05-07T01:13:15.058Z,31.93
2019-05-07T01:15:42.993Z,33.30
2019-05-07T01:18:08.857Z,37.13
2019-05-07T01:20:34.690Z,38.45
2019-05-07T01:23:02.594Z,39.58
2019-05-07T01:25:28.194Z,37.73
2019-05-07T01:27:54.033Z,37.85
2019-05-07T01:30:19.912Z,37.83
2019-05-07T01:33:04.578Z,37.13
2019-05-07T01:35:32.780Z,38.60
2019-05-07T01:37:58.996Z,36.68
2019-05-07T01:40:24.923Z,39.15
2019-05-07T01:42:52.841Z,38.30
2019-05-07T01:45:18.789Z,37.15
2019-05-07T01:47:45.025Z,38.50
2019-05-07T01:50:13.207Z,37.85
2019-05-07T01:52:39.110Z,38.15
2019-05-07T01:55:05.340Z,37.25
2019-05-07T01:57:32.599Z,40.25
2019-05-07T01:59:59.035Z,39.80
2019-05-07T02:02:26.821Z,40.98
2019-05-07T02:04:57.182Z,40.78
2019-05-07T02:07:33.884Z,39.50
2019-05-07T02:10:04.816Z,40.92
2019-05-07T02:12:33.104Z,37.90
2019-05-07T02:14:59.343Z,38.78
2019-05-07T02:17:25.429Z,39.10
2019-05-07T02:20:02.585Z,39.20
2019-05-07T02:22:28.626Z,41.08
2019-05-07T02:24:54.463Z,39.63
2019-05-07T02:27:22.053Z,42.93
2019-05-07T02:29:48.139Z,40.88
2019-05-07T02:32:13.976Z,41.60
2019-05-07T02:34:44.243Z,39.23
2019-05-07T02:37:11.123Z,42.23
2019-05-07T02:39:44.232Z,41.53
2019-05-07T02:42:09.640Z,40.52
2019-05-07T02:44:37.407Z,39.85
2019-05-07T02:47:05.144Z,41.95
2019-05-07T02:49:38.961Z,42.48
2019-05-07T02:52:16.041Z,41.80
2019-05-07T02:54:58.708Z,41.55
2019-05-07T02:57:25.438Z,41.53
2019-05-07T02:59:54.402Z,43.08
2019-05-07T03:02:19.391Z,41.65
2019-05-07T03:04:45.623Z,38.63
2019-05-07T03:07:13.174Z,41.53
2019-05-07T03:09:42.840Z,37.48
2019-05-07T03:12:07.399Z,37.28
2019-05-07T03:14:33.223Z,38.35
2019-05-07T03:16:59.071Z,38.17
2019-05-07T03:19:25.538Z,37.55
2019-05-07T03:21:55.146Z,36.38
2019-05-07T03:24:23.710Z,37.78
2019-05-07T03:26:53.391Z,37.50
2019-05-07T03:29:20.137Z,38.33
2019-05-07T03:31:57.270Z,37.80
2019-05-07T03:34:36.215Z,37.10
2019-05-07T03:37:05.580Z,37.10
2019-05-07T03:39:29.021Z,36.05
2019-05-07T03:41:54.930Z,36.63
2019-05-07T03:44:39.304Z,35.40
2019-05-07T03:47:15.365Z,34.53
2019-05-07T03:49:43.001Z,33.85
2019-05-07T03:52:09.090Z,33.42
2019-05-07T03:54:35.245Z,34.00
2019-05-07T03:57:09.544Z,32.30
2019-05-07T03:59:29.739Z,32.90
2019-05-07T04:01:55.971Z,31.75
2019-05-07T04:04:23.043Z,33.08
2019-05-07T04:06:49.650Z,34.20
2019-05-07T04:09:15.888Z,32.10
2019-05-07T04:11:43.237Z,34.20
2019-05-07T04:14:09.838Z,34.25
2019-05-07T04:16:38.287Z,35.78
2019-05-07T04:19:04.750Z,32.98
2019-05-07T04:21:34.176Z,33.13
2019-05-07T04:24:16.833Z,31.52
2019-05-07T04:26:59.429Z,34.00
2019-05-07T04:29:25.294Z,33.30
2019-05-07T04:31:53.276Z,32.73
2019-05-07T04:34:23.754Z,33.40
2019-05-07T04:36:53.197Z,33.48
2019-05-07T04:39:18.079Z,34.63
2019-05-07T04:41:44.317Z,34.20
2019-05-07T04:44:13.783Z,36.90
2019-05-07T04:46:38.189Z,34.73
2019-05-07T04:49:04.253Z,35.35
2019-05-07T04:51:33.643Z,35.50
2019-05-07T04:54:03.322Z,34.13
2019-05-07T04:56:27.997Z,33.42
2019-05-07T04:58:54.467Z,34.85
2019-05-07T05:01:23.440Z,32.95
2019-05-07T05:03:50.198Z,31.42
2019-05-07T05:06:16.057Z,31.40
2019-05-07T05:08:43.463Z,32.05
2019-05-07T05:11:12.580Z,30.27
2019-05-07T05:13:37.742Z,30.23
2019-05-07T05:16:05.849Z,30.72
2019-05-07T05:18:32.932Z,29.27
2019-05-07T05:21:04.044Z,28.67
2019-05-07T05:23:34.742Z,29.40
2019-05-07T05:26:01.940Z,31.35
2019-05-07T05:28:28.450Z,30.10
2019-05-07T05:30:56.143Z,29.87
2019-05-07T05:33:23.462Z,29.75
2019-05-07T05:35:52.279Z,30.02
2019-05-07T05:38:17.699Z,28.90
2019-05-07T05:40:43.532Z,28.40
2019-05-07T05:43:12.695Z,30.02
2019-05-07T05:45:50.076Z,27.90
2019-05-07T05:48:15.937Z,26.42
2019-05-07T05:51:02.705Z,28.00
2019-05-07T05:53:33.633Z,27.37
2019-05-07T05:56:02.436Z,27.82
2019-05-07T05:58:32.891Z,25.12
2019-05-07T06:01:06.665Z,24.27
2019-05-07T06:03:40.042Z,24.90
2019-05-07T06:06:16.641Z,23.77
2019-05-07T06:08:56.227Z,22.77
2019-05-07T06:11:40.373Z,22.87
2019-05-07T06:14:13.312Z,22.27
2019-05-07T06:16:56.645Z,23.18
2019-05-07T06:19:36.477Z,24.07
2019-05-07T06:22:04.672Z,24.35
2019-05-07T06:24:32.446Z,23.77
2019-05-07T06:26:58.298Z,26.35
2019-05-07T06:29:24.166Z,28.80
2019-05-07T06:31:52.855Z,31.10
2019-05-07T06:34:19.168Z,29.25
2019-05-07T06:36:45.051Z,28.10
2019-05-07T06:39:13.180Z,27.48
2019-05-07T06:41:56.210Z,26.55
2019-05-07T06:44:23.338Z,26.62
2019-05-07T06:46:49.177Z,28.38
2019-05-07T06:49:15.059Z,27.70
2019-05-07T06:51:42.032Z,27.77
2019-05-07T06:54:08.237Z,27.58
2019-05-07T06:56:34.088Z,26.77
2019-05-07T06:59:12.837Z,29.05
2019-05-07T07:01:42.174Z,28.20
2019-05-07T07:04:10.056Z,27.32
2019-05-07T07:06:52.188Z,28.35
2019-05-07T07:09:28.250Z,29.80
2019-05-07T07:11:56.029Z,28.07
2019-05-07T07:14:22.812Z,28.40
2019-05-07T07:16:48.906Z,29.40
2019-05-07T07:19:14.775Z,28.57
2019-05-07T07:21:42.188Z,27.73
2019-05-07T07:24:08.496Z,29.65
2019-05-07T07:26:35.975Z,29.52
2019-05-07T07:29:02.157Z,30.08
2019-05-07T07:31:39.380Z,30.25
2019-05-07T07:34:06.089Z,32.08
2019-05-07T07:36:34.273Z,29.37
2019-05-07T07:39:02.031Z,31.55
2019-05-07T07:41:29.735Z,30.72
2019-05-07T07:43:56.230Z,27.13
2019-05-07T07:46:22.339Z,28.02
2019-05-07T07:49:03.199Z,30.27
2019-05-07T07:51:16.671Z,30.23
2019-05-07T07:53:43.198Z,33.78
2019-05-07T07:56:27.682Z,35.17
2019-05-07T07:59:01.999Z,35.10
2019-05-07T08:01:30.027Z,35.25
2019-05-07T08:03:55.875Z,34.43
2019-05-07T08:06:22.605Z,32.17
2019-05-07T08:08:48.851Z,28.60
2019-05-07T08:11:14.679Z,28.27
2019-05-07T08:13:42.502Z,30.82
2019-05-07T08:16:08.228Z,27.95
2019-05-07T08:18:34.087Z,28.65
2019-05-07T08:20:59.912Z,32.53
2019-05-07T08:23:25.742Z,32.20
2019-05-07T08:25:52.513Z,30.45
2019-05-07T08:28:18.670Z,32.35
2019-05-07T08:30:46.938Z,32.05
2019-05-07T08:33:23.551Z,33.28
2019-05-07T08:35:52.198Z,33.85
2019-05-07T08:38:18.729Z,31.30
2019-05-07T08:40:44.563Z,31.95
2019-05-07T08:43:12.448Z,28.62
2019-05-07T08:45:58.178Z,25.65
2019-05-07T08:48:25.963Z,24.43
2019-05-07T08:50:52.555Z,21.80
2019-05-07T08:53:18.464Z,23.52
2019-05-07T08:55:44.347Z,20.45
2019-05-07T08:58:12.069Z,20.75
2019-05-07T09:00:37.856Z,21.65
2019-05-07T09:03:03.727Z,20.97
2019-05-07T09:05:29.602Z,17.77
2019-05-07T09:07:55.481Z,18.67
2019-05-07T09:10:21.860Z,17.20
2019-05-07T09:12:47.956Z,16.42
2019-05-07T09:15:14.126Z,19.20
2019-05-07T09:17:42.145Z,17.95
2019-05-07T09:20:09.195Z,17.90
2019-05-07T09:22:35.746Z,18.87
2019-05-07T09:25:03.099Z,17.52
2019-05-07T09:27:32.686Z,18.27
2019-05-07T09:30:04.249Z,17.55
2019-05-07T09:32:35.393Z,15.93
2019-05-07T09:35:09.314Z,16.70
2019-05-07T09:37:35.150Z,16.30
2019-05-07T09:40:02.897Z,15.88
2019-05-07T09:42:28.666Z,16.65
2019-05-07T09:44:55.125Z,15.35
2019-05-07T09:47:21.897Z,14.00
2019-05-07T09:50:00.450Z,15.10
2019-05-07T09:52:15.712Z,15.50
2019-05-07T09:54:42.866Z,16.05
2019-05-07T09:57:25.240Z,15.32
2019-05-07T09:59:36.477Z,14.80
2019-05-07T10:02:02.270Z,15.03
2019-05-07T10:04:28.107Z,14.93
2019-05-07T10:06:54.271Z,15.70
2019-05-07T10:09:22.279Z,15.88
2019-05-07T10:11:52.906Z,15.68
2019-05-07T10:14:18.851Z,14.83
2019-05-07T10:16:52.481Z,20.55
2019-05-07T10:19:18.929Z,22.00
2019-05-07T10:21:45.169Z,21.95
2019-05-07T10:24:12.868Z,22.70
2019-05-07T10:26:40.190Z,22.30
2019-05-07T10:29:06.392Z,20.12
2019-05-07T10:31:32.524Z,20.57
2019-05-07T10:33:58.762Z,20.75
2019-05-07T10:36:24.683Z,19.65
2019-05-07T10:38:52.014Z,19.32
2019-05-07T10:41:19.093Z,18.67
2019-05-07T10:43:45.327Z,19.80
2019-05-07T10:46:13.096Z,19.65
2019-05-07T10:48:43.658Z,17.65
2019-05-07T10:51:09.535Z,19.25
2019-05-07T10:53:36.009Z,17.30
2019-05-07T10:56:02.732Z,18.12
2019-05-07T10:58:29.255Z,17.95
2019-05-07T11:00:55.623Z,19.20
2019-05-07T11:03:22.522Z,18.70
2019-05-07T11:05:49.163Z,18.00
2019-05-07T11:08:15.003Z,18.62
2019-05-07T11:10:41.941Z,18.30
2019-05-07T11:13:07.862Z,18.50
2019-05-07T11:15:33.946Z,18.75
2019-05-07T11:18:02.694Z,20.08
2019-05-07T11:20:29.409Z,17.67
2019-05-07T11:22:55.237Z,16.75
2019-05-07T11:25:22.489Z,17.45
2019-05-07T11:27:48.541Z,16.67
2019-05-07T11:30:14.728Z,15.72
2019-05-07T11:32:42.767Z,16.00
2019-05-07T11:35:08.292Z,15.13
2019-05-07T11:37:34.171Z,14.78
2019-05-07T11:40:03.038Z,14.38
2019-05-07T11:42:30.000Z,13.65
2019-05-07T11:44:56.594Z,12.98
2019-05-07T11:47:26.961Z,13.28
2019-05-07T11:50:14.504Z,14.00
2019-05-07T11:52:53.284Z,14.18
2019-05-07T11:55:19.157Z,14.98
2019-05-07T11:57:45.437Z,14.18
2019-05-07T12:00:13.478Z,14.10
2019-05-07T12:02:39.341Z,13.85
2019-05-07T12:05:06.502Z,13.35
2019-05-07T12:07:32.748Z,13.95
2019-05-07T12:10:02.307Z,13.28
2019-05-07T12:12:26.769Z,13.18
2019-05-07T12:14:52.642Z,12.40
2019-05-07T12:17:18.491Z,13.28
2019-05-07T12:19:44.360Z,13.05
2019-05-07T12:22:12.059Z,12.47
2019-05-07T12:24:37.870Z,13.25
2019-05-07T12:27:03.838Z,13.30
2019-05-07T12:29:29.686Z,14.00
2019-05-07T12:32:12.704Z,13.00
2019-05-07T12:34:42.208Z,12.93
2019-05-07T12:37:08.114Z,13.25
2019-05-07T12:39:34.027Z,12.95
2019-05-07T12:41:59.854Z,14.45
2019-05-07T12:44:26.310Z,12.88
2019-05-07T12:46:52.548Z,12.58
2019-05-07T12:49:18.833Z,12.33
2019-05-07T12:51:49.293Z,12.58
2019-05-07T12:54:22.911Z,12.85
2019-05-07T12:56:48.760Z,12.13
2019-05-07T12:59:15.146Z,12.78
2019-05-07T13:01:45.857Z,12.28
2019-05-07T13:04:13.593Z,12.75
2019-05-07T13:06:42.027Z,12.35
2019-05-07T13:09:08.263Z,11.90
2019-05-07T13:11:34.097Z,11.38
2019-05-07T13:14:01.990Z,11.97
2019-05-07T13:16:28.583Z,12.05
2019-05-07T13:18:56.961Z,10.93
2019-05-07T13:21:22.829Z,11.33
2019-05-07T13:23:48.873Z,11.50
2019-05-07T13:26:15.139Z,11.20
2019-05-07T13:28:44.706Z,10.63
2019-05-07T13:31:12.558Z,11.12
2019-05-07T13:33:38.647Z,10.48
2019-05-07T13:36:04.584Z,11.55
2019-05-07T13:38:35.225Z,11.22
2019-05-07T13:41:09.021Z,11.40
2019-05-07T13:43:39.653Z,10.80
2019-05-07T13:46:12.100Z,10.75
2019-05-07T13:48:42.236Z,10.60
2019-05-07T13:51:07.955Z,10.98
2019-05-07T13:53:33.794Z,10.55
2019-05-07T13:56:02.195Z,10.35
2019-05-07T13:58:28.480Z,10.32
2019-05-07T14:00:58.755Z,9.63
2019-05-07T14:03:25.049Z,9.93
2019-05-07T14:05:51.687Z,9.63
2019-05-07T14:08:19.119Z,10.65
2019-05-07T14:10:45.003Z,10.18
2019-05-07T14:13:17.161Z,9.80
2019-05-07T14:15:43.025Z,9.63
2019-05-07T14:18:08.970Z,8.90
2019-05-07T14:20:34.850Z,8.65
2019-05-07T14:23:00.683Z,9.78
2019-05-07T14:25:26.513Z,9.58
2019-05-07T14:27:52.998Z,8.90
2019-05-07T14:30:18.822Z,9.08
2019-05-07T14:32:49.969Z,8.30
2019-05-07T14:35:23.383Z,8.10
2019-05-07T14:38:00.090Z,8.38
2019-05-07T14:40:26.054Z,7.90
2019-05-07T14:43:00.649Z,7.75
2019-05-07T14:45:29.177Z,7.53
2019-05-07T14:47:55.053Z,7.40
2019-05-07T14:50:22.621Z,7.03
2019-05-07T14:52:48.519Z,8.40
2019-05-07T14:55:14.633Z,7.83
2019-05-07T14:57:42.101Z,7.78
2019-05-07T15:00:08.653Z,7.87
2019-05-07T15:02:34.566Z,7.12
2019-05-07T15:05:02.647Z,7.00
2019-05-07T15:07:28.103Z,7.83
2019-05-07T15:09:55.261Z,7.95
2019-05-07T15:12:23.403Z,7.70
2019-05-07T15:14:50.266Z,7.62
2019-05-07T15:17:18.513Z,7.92
2019-05-07T15:19:45.642Z,7.30
2019-05-07T15:22:22.858Z,8.10
2019-05-07T15:24:48.869Z,8.38
2019-05-07T15:27:14.861Z,8.00
2019-05-07T15:29:43.463Z,7.78
2019-05-07T15:32:09.817Z,8.08
2019-05-07T15:34:35.646Z,7.55
2019-05-07T15:37:01.757Z,7.20
2019-05-07T15:39:27.629Z,8.43
2019-05-07T15:41:53.466Z,7.35
2019-05-07T15:44:19.650Z,7.33
2019-05-07T15:46:45.545Z,7.55
2019-05-07T15:49:12.564Z,6.78
2019-05-07T15:51:41.706Z,6.95
2019-05-07T15:54:07.217Z,6.80
2019-05-07T15:56:33.640Z,6.90
2019-05-07T15:58:59.511Z,7.60
2019-05-07T16:01:25.682Z,9.03
2019-05-07T16:03:54.846Z,8.75
2019-05-07T16:06:21.985Z,7.83
2019-05-07T16:08:50.117Z,7.95
2019-05-07T16:11:15.937Z,8.58
2019-05-07T16:13:43.707Z,9.53
2019-05-07T16:16:10.023Z,9.25
2019-05-07T16:18:54.498Z,9.05
2019-05-07T16:21:22.509Z,8.33
2019-05-07T16:23:48.374Z,8.95
2019-05-07T16:26:14.598Z,7.70
2019-05-07T16:28:41.744Z,7.62
2019-05-07T16:31:08.106Z,7.70
2019-05-07T16:33:34.724Z,8.15
2019-05-07T16:36:02.146Z,6.67
2019-05-07T16:38:28.237Z,7.00
2019-05-07T16:40:54.226Z,8.05
2019-05-07T16:43:21.955Z,8.18
2019-05-07T16:45:48.165Z,7.47
2019-05-07T16:48:14.353Z,7.83
2019-05-07T16:50:40.182Z,7.00
2019-05-07T16:53:06.059Z,6.83
2019-05-07T16:55:36.799Z,6.92
2019-05-07T16:58:05.111Z,6.33
2019-05-07T17:00:33.278Z,6.33
2019-05-07T17:03:02.185Z,5.87
2019-05-07T17:05:28.596Z,6.25
2019-05-07T17:07:59.224Z,6.35
2019-05-07T17:10:25.576Z,6.65
2019-05-07T17:12:52.422Z,6.05
2019-05-07T17:15:18.428Z,6.60
2019-05-07T17:17:44.758Z,5.97
2019-05-07T17:20:12.587Z,6.03
2019-05-07T17:22:38.804Z,5.60
2019-05-07T17:25:23.860Z,5.87
2019-05-07T17:27:49.726Z,6.30
2019-05-07T17:30:15.546Z,6.12
2019-05-07T17:32:41.982Z,6.37
2019-05-07T17:35:08.020Z,6.42
2019-05-07T17:37:34.194Z,6.87
2019-05-07T17:40:00.029Z,5.90
2019-05-07T17:42:25.869Z,5.15
2019-05-07T17:44:51.897Z,5.90
2019-05-07T17:47:17.992Z,6.03
2019-05-07T17:49:43.865Z,5.50
2019-05-07T17:52:10.574Z,5.33
2019-05-07T17:54:37.399Z,5.70
2019-05-07T17:57:03.273Z,5.17
2019-05-07T17:59:29.149Z,5.97
2019-05-07T18:01:56.966Z,5.95
2019-05-07T18:04:23.716Z,6.12
2019-05-07T18:06:49.492Z,6.50
2019-05-07T18:09:15.665Z,5.87
2019-05-07T18:11:42.905Z,5.40
2019-05-07T18:14:09.008Z,6.37
2019-05-07T18:16:41.928Z,6.28
2019-05-07T18:19:07.831Z,7.28
2019-05-07T18:21:33.697Z,8.63
2019-05-07T18:24:12.727Z,8.38
2019-05-07T18:26:30.707Z,7.28
2019-05-07T18:28:56.149Z,6.53
2019-05-07T18:31:26.917Z,7.00
2019-05-07T18:33:54.628Z,6.37
2019-05-07T18:36:22.558Z,6.40
2019-05-07T18:38:48.276Z,6.42
2019-05-07T18:41:14.370Z,6.05
2019-05-07T18:43:42.030Z,6.00
2019-05-07T18:46:07.874Z,5.67
2019-05-07T18:48:33.697Z,5.80
2019-05-07T18:50:59.885Z,5.58
2019-05-07T18:53:26.121Z,5.65
2019-05-07T18:55:52.010Z,6.03
2019-05-07T18:58:18.240Z,5.70
2019-05-07T19:00:58.158Z,5.83
2019-05-07T19:03:25.402Z,6.03
2019-05-07T19:05:52.430Z,5.90
2019-05-07T19:08:18.281Z,6.20
2019-05-07T19:10:44.221Z,6.17
2019-05-07T19:13:10.213Z,6.05
2019-05-07T19:15:36.573Z,6.35
2019-05-07T19:18:02.785Z,5.97
2019-05-07T19:20:29.457Z,6.17
2019-05-07T19:22:55.297Z,5.87
2019-05-07T19:25:21.302Z,6.75
2019-05-07T19:27:47.219Z,5.53
2019-05-07T19:30:13.948Z,6.10
2019-05-07T19:32:39.772Z,6.35
2019-05-07T19:35:05.603Z,5.83
2019-05-07T19:37:31.899Z,6.70
2019-05-07T19:39:58.469Z,6.10
2019-05-07T19:42:24.380Z,5.90
2019-05-07T19:44:51.831Z,6.80
2019-05-07T19:47:18.048Z,7.00
2019-05-07T19:49:44.605Z,7.15
2019-05-07T19:52:12.295Z,6.85
2019-05-07T19:54:38.075Z,6.70
2019-05-07T19:57:04.064Z,6.78
2019-05-07T19:59:32.457Z,6.95
2019-05-07T20:02:02.113Z,6.53
2019-05-07T20:04:27.882Z,7.95
2019-05-07T20:06:53.754Z,7.67
2019-05-07T20:09:21.530Z,8.20
2019-05-07T20:11:48.850Z,7.53
2019-05-07T20:14:14.692Z,6.83
2019-05-07T20:16:42.079Z,7.22
2019-05-07T20:19:08.391Z,6.55
2019-05-07T20:21:34.234Z,7.00
2019-05-07T20:24:01.863Z,6.97
2019-05-07T20:26:28.970Z,6.58
2019-05-07T20:28:54.850Z,7.28
2019-05-07T20:31:22.626Z,6.70
2019-05-07T20:33:48.649Z,6.83
2019-05-07T20:36:14.498Z,6.95
2019-05-07T20:38:42.521Z,6.72
2019-05-07T20:41:08.054Z,6.50
2019-05-07T20:43:33.923Z,6.60
2019-05-07T20:46:02.488Z,6.58
2019-05-07T20:48:28.092Z,6.75
2019-05-07T20:50:53.930Z,7.42
2019-05-07T20:53:21.970Z,7.42
2019-05-07T20:55:58.578Z,6.90
2019-05-07T20:58:24.419Z,8.03
2019-05-07T21:00:52.478Z,7.25
2019-05-07T21:03:20.598Z,7.95
2019-05-07T21:05:48.322Z,7.70
2019-05-07T21:08:14.175Z,7.87
2019-05-07T21:10:42.453Z,8.05
2019-05-07T21:13:08.179Z,8.25
2019-05-07T21:15:34.404Z,8.13
2019-05-07T21:18:00.301Z,8.05
2019-05-07T21:20:26.553Z,8.70
2019-05-07T21:22:52.792Z,8.53
2019-05-07T21:25:18.563Z,8.53
2019-05-07T21:27:44.413Z,8.38
2019-05-07T21:30:12.968Z,8.33
2019-05-07T21:32:38.419Z,7.78
2019-05-07T21:35:04.539Z,7.80
2019-05-07T21:37:32.371Z,7.87
2019-05-07T21:39:58.470Z,8.05
2019-05-07T21:42:24.338Z,8.05
2019-05-07T21:44:52.499Z,7.65
2019-05-07T21:47:18.326Z,7.85
2019-05-07T21:49:44.207Z,8.03
2019-05-07T21:52:10.047Z,8.40
2019-05-07T21:54:38.236Z,8.63
2019-05-07T21:57:06.203Z,9.03
2019-05-07T21:59:35.793Z,7.72
2019-05-07T22:02:07.989Z,8.50
2019-05-07T22:04:34.207Z,8.55
2019-05-07T22:07:02.764Z,8.70
2019-05-07T22:09:28.712Z,7.55
2019-05-07T22:11:54.480Z,8.43
2019-05-07T22:14:22.165Z,8.43
2019-05-07T22:16:48.023Z,7.75
2019-05-07T22:19:13.906Z,8.63
2019-05-07T22:21:39.834Z,7.90
2019-05-07T22:24:06.043Z,7.90
2019-05-07T22:26:32.344Z,8.90
2019-05-07T22:28:58.526Z,9.30
2019-05-07T22:31:29.633Z,8.25
2019-05-07T22:34:03.666Z,8.18
2019-05-07T22:36:29.886Z,8.60
2019-05-07T22:38:55.761Z,8.38
2019-05-07T22:41:22.403Z,7.92
2019-05-07T22:43:48.919Z,8.35
2019-05-07T22:46:15.562Z,8.78
2019-05-07T22:48:41.956Z,8.03
2019-05-07T22:51:08.238Z,8.28
2019-05-07T22:53:34.120Z,8.13
2019-05-07T22:56:00.450Z,8.35
2019-05-07T22:58:32.589Z,8.58
2019-05-07T23:01:02.446Z,7.85
2019-05-07T23:03:28.734Z,7.92
2019-05-07T23:05:56.606Z,8.40
2019-05-07T23:08:22.439Z,8.70
2019-05-07T23:10:48.546Z,8.48
2019-05-07T23:13:14.427Z,8.80
2019-05-07T23:15:42.817Z,8.68
2019-05-07T23:18:08.755Z,8.43
2019-05-07T23:20:35.324Z,8.48
2019-05-07T23:23:01.201Z,9.33
2019-05-07T23:25:26.976Z,8.88
2019-05-07T23:27:53.161Z,9.50
2019-05-07T23:30:19.385Z,8.68
2019-05-07T23:32:45.613Z,9.78
2019-05-07T23:35:12.669Z,9.35
2019-05-07T23:37:38.686Z,8.95
2019-05-07T23:40:12.115Z,8.70
2019-05-07T23:42:42.300Z,9.55
2019-05-07T23:45:08.266Z,9.68
2019-05-07T23:47:34.141Z,9.15
2019-05-07T23:50:02.085Z,9.65
2019-05-07T23:52:28.585Z,9.40
2019-05-07T23:54:54.817Z,8.85
2019-05-07T23:57:23.113Z,9.68
2019-05-07T23:59:49.327Z,9.58
